Terminal Aerodrome Forecast
Issued by NWS Cleveland, OH

Home | Current Version | Previous Version | Graphics & Text | Print | Product List | Glossary Off
Versions: 1 2 3 4 5 6 7 8 9 10 11 12 13 14 15 16 17 18 19 20 21

517
FTUS41 KCLE 171954 AAA
TAFCAK
TAF AMD
KCAK 171954Z 1720/1818 26012KT P6SM SCT018 BKN035
      TEMPO 1720/1722 BKN025
     FM172200 25010KT P6SM BKN025
     FM180300 25008KT 5SM BR VCSH OVC007
     FM180700 26008KT 3SM BR OVC004
     FM181500 28010KT 5SM BR OVC009=

USA.gov is the U.S. government's official web portal to all federal, state and local government web resources and services.